sensor_id;sensor_type;location;lat;lon;timestamp;pressure;altitude;pressure_sealevel;temperature;humidity
55550;BME280;41397;49.972;18.944;2023-05-03T00:00:14;102533.46;;;17.08;67.81
55550;BME280;41397;49.972;18.944;2023-05-03T00:03:22;102532.44;;;17.09;68.41
55550;BME280;41397;49.972;18.944;2023-05-03T00:06:25;102529.82;;;17.08;68.97
55550;BME280;41397;49.972;18.944;2023-05-03T00:09:27;102530.69;;;17.08;68.61
55550;BME280;41397;49.972;18.944;2023-05-03T00:12:29;102537.35;;;17.06;68.65
55550;BME280;41397;49.972;18.944;2023-05-03T00:15:30;102532.69;;;17.06;68.59
55550;BME280;41397;49.972;18.944;2023-05-03T00:18:31;102530.80;;;17.07;68.89
55550;BME280;41397;49.972;18.944;2023-05-03T00:21:33;102530.80;;;17.07;68.91
55550;BME280;41397;49.972;18.944;2023-05-03T00:24:35;102535.46;;;17.06;68.86
55550;BME280;41397;49.972;18.944;2023-05-03T00:27:52;102534.70;;;17.04;68.37
55550;BME280;41397;49.972;18.944;2023-05-03T00:30:53;102533.55;;;17.07;68.66
55550;BME280;41397;49.972;18.944;2023-05-03T00:33:56;102532.69;;;17.06;68.76
55550;BME280;41397;49.972;18.944;2023-05-03T00:36:57;102529.93;;;17.06;68.83
55550;BME280;41397;49.972;18.944;2023-05-03T00:39:58;102531.94;;;17.04;68.56
55550;BME280;41397;49.972;18.944;2023-05-03T00:43:00;102533.05;;;17.02;68.78
55550;BME280;41397;49.972;18.944;2023-05-03T00:46:05;102531.31;;;17.01;68.84
55550;BME280;41397;49.972;18.944;2023-05-03T00:49:07;102534.70;;;17.04;68.56
55550;BME280;41397;49.972;18.944;2023-05-03T00:52:08;102531.20;;;17.02;68.78
55550;BME280;41397;49.972;18.944;2023-05-03T00:55:11;102530.45;;;17.00;68.75
55550;BME280;41397;49.972;18.944;2023-05-03T00:58:12;102536.22;;;16.97;68.64
55550;BME280;41397;49.972;18.944;2023-05-03T01:01:15;102524.40;;;16.95;68.94
55550;BME280;41397;49.972;18.944;2023-05-03T01:04:18;102527.67;;;16.89;68.54
55550;BME280;41397;49.972;18.944;2023-05-03T01:13:56;102535.31;;;16.85;69.68
55550;BME280;41397;49.972;18.944;2023-05-03T01:17:07;102534.44;;;16.85;69.44
55550;BME280;41397;49.972;18.944;2023-05-03T01:20:21;102532.69;;;16.84;69.53
55550;BME280;41397;49.972;18.944;2023-05-03T01:26:39;102534.59;;;16.83;69.14
55550;BME280;41397;49.972;18.944;2023-05-03T01:29:43;102530.04;;;16.82;69.30
55550;BME280;41397;49.972;18.944;2023-05-03T01:36:12;102539.33;;;16.81;70.24
55550;BME280;41397;49.972;18.944;2023-05-03T01:39:20;102532.18;;;16.79;69.99
55550;BME280;41397;49.972;18.944;2023-05-03T01:42:23;102532.94;;;16.81;70.19
55550;BME280;41397;49.972;18.944;2023-05-03T01:45:25;102537.45;;;16.82;69.91
55550;BME280;41397;49.972;18.944;2023-05-03T01:48:27;102533.81;;;16.81;69.75
55550;BME280;41397;49.972;18.944;2023-05-03T01:51:28;102527.41;;;16.81;69.81
55550;BME280;41397;49.972;18.944;2023-05-03T01:54:39;102535.56;;;16.82;69.69
55550;BME280;41397;49.972;18.944;2023-05-03T01:57:41;102528.28;;;16.81;69.56
55550;BME280;41397;49.972;18.944;2023-05-03T02:00:44;102537.34;;;16.83;69.29
55550;BME280;41397;49.972;18.944;2023-05-03T02:03:47;102540.98;;;16.84;69.28
55550;BME280;41397;49.972;18.944;2023-05-03T02:06:52;102532.80;;;16.82;68.92
55550;BME280;41397;49.972;18.944;2023-05-03T02:09:53;102534.44;;;16.85;69.29
55550;BME280;41397;49.972;18.944;2023-05-03T02:12:54;102526.28;;;16.83;69.41
55550;BME280;41397;49.972;18.944;2023-05-03T02:15:56;102529.27;;;16.80;68.91
55550;BME280;41397;49.972;18.944;2023-05-03T02:18:57;102529.42;;;16.79;69.21
55550;BME280;41397;49.972;18.944;2023-05-03T02:21:59;102528.65;;;16.77;68.56
55550;BME280;41397;49.972;18.944;2023-05-03T02:25:00;102531.30;;;16.78;69.00
55550;BME280;41397;49.972;18.944;2023-05-03T02:28:02;102529.42;;;16.79;69.25
55550;BME280;41397;49.972;18.944;2023-05-03T02:31:03;102532.18;;;16.79;69.61
55550;BME280;41397;49.972;18.944;2023-05-03T02:34:06;102530.17;;;16.81;69.26
55550;BME280;41397;49.972;18.944;2023-05-03T02:37:08;102528.54;;;16.78;69.83
55550;BME280;41397;49.972;18.944;2023-05-03T02:40:10;102528.75;;;16.75;69.65
55550;BME280;41397;49.972;18.944;2023-05-03T02:43:12;102527.22;;;16.71;69.56
55550;BME280;41397;49.972;18.944;2023-05-03T02:46:13;102527.99;;;16.73;69.37
55550;BME280;41397;49.972;18.944;2023-05-03T02:49:15;102533.38;;;16.75;68.99
55550;BME280;41397;49.972;18.944;2023-05-03T02:52:16;102534.50;;;16.72;69.18
55550;BME280;41397;49.972;18.944;2023-05-03T02:55:19;102547.59;;;16.70;69.19
55550;BME280;41397;49.972;18.944;2023-05-03T02:58:21;102539.15;;;16.72;68.97
55550;BME280;41397;49.972;18.944;2023-05-03T03:01:23;102550.09;;;16.73;69.73
55550;BME280;41397;49.972;18.944;2023-05-03T03:04:24;102551.84;;;16.74;70.01
55550;BME280;41397;49.972;18.944;2023-05-03T03:07:27;102559.51;;;16.71;70.42
55550;BME280;41397;49.972;18.944;2023-05-03T03:10:28;102550.34;;;16.70;70.40
55550;BME280;41397;49.972;18.944;2023-05-03T03:13:29;102558.48;;;16.72;70.97
55550;BME280;41397;49.972;18.944;2023-05-03T03:16:31;102547.07;;;16.65;70.70
55550;BME280;41397;49.972;18.944;2023-05-03T03:19:35;102557.48;;;16.61;70.89
55550;BME280;41397;49.972;18.944;2023-05-03T03:22:39;102550.44;;;16.57;70.97
55550;BME280;41397;49.972;18.944;2023-05-03T03:25:41;102551.44;;;16.56;70.59
55550;BME280;41397;49.972;18.944;2023-05-03T03:28:42;102561.09;;;16.51;70.54
55550;BME280;41397;49.972;18.944;2023-05-03T03:31:44;102550.16;;;16.49;71.01
55550;BME280;41397;49.972;18.944;2023-05-03T03:34:45;102556.45;;;16.51;70.91
55550;BME280;41397;49.972;18.944;2023-05-03T03:37:47;102554.66;;;16.50;70.93
55550;BME280;41397;49.972;18.944;2023-05-03T03:40:48;102559.31;;;16.50;70.58
55550;BME280;41397;49.972;18.944;2023-05-03T03:43:50;102565.71;;;16.50;71.16
55550;BME280;41397;49.972;18.944;2023-05-03T03:46:52;102562.95;;;16.50;71.18
55550;BME280;41397;49.972;18.944;2023-05-03T03:49:53;102566.49;;;16.52;70.94
55550;BME280;41397;49.972;18.944;2023-05-03T03:52:55;102569.25;;;16.52;71.50
55550;BME280;41397;49.972;18.944;2023-05-03T03:55:58;102569.25;;;16.52;71.75
55550;BME280;41397;49.972;18.944;2023-05-03T03:59:00;102563.48;;;16.55;71.61
55550;BME280;41397;49.972;18.944;2023-05-03T04:02:01;102575.30;;;16.57;71.62
55550;BME280;41397;49.972;18.944;2023-05-03T04:05:03;102577.17;;;16.57;71.46
55550;BME280;41397;49.972;18.944;2023-05-03T04:08:06;102585.33;;;16.58;71.77
55550;BME280;41397;49.972;18.944;2023-05-03T04:11:11;102582.46;;;16.60;71.66
55550;BME280;41397;49.972;18.944;2023-05-03T04:14:13;102585.22;;;16.60;71.98
55550;BME280;41397;49.972;18.944;2023-05-03T04:17:14;102585.22;;;16.60;71.66
55550;BME280;41397;49.972;18.944;2023-05-03T04:20:16;102585.46;;;16.57;71.42
55550;BME280;41397;49.972;18.944;2023-05-03T04:23:18;102601.70;;;16.61;71.47
55550;BME280;41397;49.972;18.944;2023-05-03T04:26:20;102599.04;;;16.60;71.07
55550;BME280;41397;49.972;18.944;2023-05-03T04:29:25;102600.05;;;16.59;71.17
55550;BME280;41397;49.972;18.944;2023-05-03T04:32:27;102597.39;;;16.57;71.26
55550;BME280;41397;49.972;18.944;2023-05-03T04:35:28;102607.42;;;16.58;71.18
55550;BME280;41397;49.972;18.944;2023-05-03T04:38:30;102607.42;;;16.58;70.96
55550;BME280;41397;49.972;18.944;2023-05-03T04:41:33;102617.60;;;16.58;70.54
55550;BME280;41397;49.972;18.944;2023-05-03T04:44:35;102605.77;;;16.56;70.22
55550;BME280;41397;49.972;18.944;2023-05-03T04:47:36;102613.09;;;16.57;70.12
55550;BME280;41397;49.972;18.944;2023-05-03T04:50:38;102617.73;;;16.56;69.88
55550;BME280;41397;49.972;18.944;2023-05-03T04:53:39;102616.10;;;16.54;69.79
55550;BME280;41397;49.972;18.944;2023-05-03T04:56:41;102623.51;;;16.53;70.25
55550;BME280;41397;49.972;18.944;2023-05-03T04:59:42;102614.30;;;16.53;70.44
55550;BME280;41397;49.972;18.944;2023-05-03T05:02:43;102618.96;;;16.52;70.36
55550;BME280;41397;49.972;18.944;2023-05-03T05:05:45;102616.34;;;16.51;70.63
55550;BME280;41397;49.972;18.944;2023-05-03T05:08:46;102635.88;;;16.48;70.51
55550;BME280;41397;49.972;18.944;2023-05-03T05:11:48;102627.73;;;16.46;70.67
55550;BME280;41397;49.972;18.944;2023-05-03T05:14:50;102635.78;;;16.49;70.90
55550;BME280;41397;49.972;18.944;2023-05-03T05:17:51;102629.48;;;16.47;70.54
55550;BME280;41397;49.972;18.944;2023-05-03T05:20:54;102645.95;;;16.49;70.87
55550;BME280;41397;49.972;18.944;2023-05-03T05:23:55;102636.78;;;16.48;70.98
55550;BME280;41397;49.972;18.944;2023-05-03T05:26:57;102647.05;;;16.46;70.35
55550;BME280;41397;49.972;18.944;2023-05-03T05:29:58;102636.90;;;16.47;70.73
55550;BME280;41397;49.972;18.944;2023-05-03T05:33:02;102642.55;;;16.45;70.69
55550;BME280;41397;49.972;18.944;2023-05-03T05:36:04;102645.41;;;16.43;70.82
55550;BME280;41397;49.972;18.944;2023-05-03T05:39:06;102644.41;;;16.45;70.65
55550;BME280;41397;49.972;18.944;2023-05-03T05:42:07;102649.93;;;16.45;70.68
55550;BME280;41397;49.972;18.944;2023-05-03T05:45:10;102660.11;;;16.44;70.63
55550;BME280;41397;49.972;18.944;2023-05-03T05:48:13;102650.94;;;16.43;70.63
55550;BME280;41397;49.972;18.944;2023-05-03T05:51:14;102657.47;;;16.42;70.89
55550;BME280;41397;49.972;18.944;2023-05-03T05:54:16;102665.97;;;16.39;71.47
55550;BME280;41397;49.972;18.944;2023-05-03T05:57:18;102666.98;;;16.38;71.28
55550;BME280;41397;49.972;18.944;2023-05-03T06:00:21;102668.73;;;16.39;71.54
55550;BME280;41397;49.972;18.944;2023-05-03T06:03:24;102671.19;;;16.31;71.53
55550;BME280;41397;49.972;18.944;2023-05-03T06:06:25;102671.66;;;16.25;71.52
55550;BME280;41397;49.972;18.944;2023-05-03T06:09:28;102686.35;;;16.26;71.45
55550;BME280;41397;49.972;18.944;2023-05-03T06:12:29;102689.34;;;16.23;71.25
55550;BME280;41397;49.972;18.944;2023-05-03T06:15:31;102696.79;;;16.09;70.34
55550;BME280;41397;49.972;18.944;2023-05-03T06:18:32;102694.49;;;16.03;70.51
55550;BME280;41397;49.972;18.944;2023-05-03T06:21:34;102701.26;;;15.99;70.49
55550;BME280;41397;49.972;18.944;2023-05-03T06:24:38;102701.49;;;15.96;70.91
55550;BME280;41397;49.972;18.944;2023-05-03T06:27:39;102702.70;;;15.92;70.45
55550;BME280;41397;49.972;18.944;2023-05-03T06:30:41;102705.45;;;15.92;70.86
55550;BME280;41397;49.972;18.944;2023-05-03T06:33:42;102705.45;;;15.92;70.58
55550;BME280;41397;49.972;18.944;2023-05-03T06:36:44;102704.81;;;15.88;70.21
55550;BME280;41397;49.972;18.944;2023-05-03T06:39:45;102712.65;;;15.82;69.50
55550;BME280;41397;49.972;18.944;2023-05-03T06:42:46;102710.76;;;15.82;69.82
55550;BME280;41397;49.972;18.944;2023-05-03T06:45:51;102715.41;;;15.82;69.55
55550;BME280;41397;49.972;18.944;2023-05-03T06:48:55;102717.93;;;15.85;69.41
55550;BME280;41397;49.972;18.944;2023-05-03T06:51:57;102729.42;;;15.79;69.49
55550;BME280;41397;49.972;18.944;2023-05-03T06:54:59;102723.35;;;15.73;69.22
55550;BME280;41397;49.972;18.944;2023-05-03T06:58:01;102727.77;;;15.76;69.18
55550;BME280;41397;49.972;18.944;2023-05-03T07:01:04;102729.42;;;15.79;69.07
55550;BME280;41397;49.972;18.944;2023-05-03T07:04:05;102736.27;;;15.73;69.09
55550;BME280;41397;49.972;18.944;2023-05-03T07:07:07;102729.88;;;15.72;69.25
55550;BME280;41397;49.972;18.944;2023-05-03T07:10:08;102730.16;;;15.68;69.54
55550;BME280;41397;49.972;18.944;2023-05-03T07:13:10;102734.52;;;15.72;69.64
55550;BME280;41397;49.972;18.944;2023-05-03T07:16:11;102737.05;;;15.75;69.36
55550;BME280;41397;49.972;18.944;2023-05-03T07:19:12;102734.29;;;15.75;69.59
55550;BME280;41397;49.972;18.944;2023-05-03T07:22:14;102746.11;;;15.77;68.99
55550;BME280;41397;49.972;18.944;2023-05-03T07:25:16;102748.96;;;15.75;69.07
55550;BME280;41397;49.972;18.944;2023-05-03T07:28:18;102745.88;;;15.80;69.91
55550;BME280;41397;49.972;18.944;2023-05-03T07:31:23;102753.93;;;15.83;69.46
55550;BME280;41397;49.972;18.944;2023-05-03T07:34:25;102747.40;;;15.84;69.59
55550;BME280;41397;49.972;18.944;2023-05-03T07:37:27;102761.66;;;15.91;69.76
55550;BME280;41397;49.972;18.944;2023-05-03T07:40:28;102755.23;;;15.90;69.79
55550;BME280;41397;49.972;18.944;2023-05-03T07:43:33;102758.22;;;15.87;69.21
55550;BME280;41397;49.972;18.944;2023-05-03T07:46:34;102753.92;;;15.96;69.83
55550;BME280;41397;49.972;18.944;2023-05-03T07:49:39;102755.77;;;15.95;69.14
55550;BME280;41397;49.972;18.944;2023-05-03T07:52:40;102746.39;;;15.98;69.29
55550;BME280;41397;49.972;18.944;2023-05-03T07:55:43;102757.10;;;16.03;69.18
55550;BME280;41397;49.972;18.944;2023-05-03T07:58:44;102761.29;;;15.95;68.30
55550;BME280;41397;49.972;18.944;2023-05-03T08:01:46;102761.20;;;15.97;67.73
55550;BME280;41397;49.972;18.944;2023-05-03T08:04:48;102769.70;;;15.94;68.11
55550;BME280;41397;49.972;18.944;2023-05-03T08:07:49;102760.31;;;15.96;67.71
55550;BME280;41397;49.972;18.944;2023-05-03T08:10:51;102759.86;;;16.03;67.61
55550;BME280;41397;49.972;18.944;2023-05-03T08:13:53;102765.80;;;16.09;67.21
55550;BME280;41397;49.972;18.944;2023-05-03T08:16:54;102761.05;;;16.11;67.06
55550;BME280;41397;49.972;18.944;2023-05-03T08:19:56;102767.80;;;16.07;65.96
55550;BME280;41397;49.972;18.944;2023-05-03T08:22:57;102768.88;;;16.17;67.05
55550;BME280;41397;49.972;18.944;2023-05-03T08:25:59;102779.91;;;16.17;66.47
55550;BME280;41397;49.972;18.944;2023-05-03T08:29:02;102780.82;;;16.18;66.01
55550;BME280;41397;49.972;18.944;2023-05-03T08:32:06;102776.05;;;16.20;66.48
55550;BME280;41397;49.972;18.944;2023-05-03T08:35:08;102779.58;;;16.22;66.57
55550;BME280;41397;49.972;18.944;2023-05-03T08:45:20;102790.06;;;16.30;66.34
55550;BME280;41397;49.972;18.944;2023-05-03T08:48:31;102780.53;;;16.34;65.68
55550;BME280;41397;49.972;18.944;2023-05-03T08:51:46;102784.38;;;16.44;65.52
55550;BME280;41397;49.972;18.944;2023-05-03T08:54:51;102783.81;;;16.52;66.09
55550;BME280;41397;49.972;18.944;2023-05-03T08:57:53;102795.05;;;16.61;66.34
55550;BME280;41397;49.972;18.944;2023-05-03T09:00:55;102795.80;;;16.63;65.33
55550;BME280;41397;49.972;18.944;2023-05-03T09:03:57;102795.23;;;16.71;65.94
55550;BME280;41397;49.972;18.944;2023-05-03T09:07:07;102791.14;;;16.77;65.61
55550;BME280;41397;49.972;18.944;2023-05-03T09:13:30;102799.63;;;16.86;64.96
55550;BME280;41397;49.972;18.944;2023-05-03T09:16:32;102804.66;;;16.93;65.40
55550;BME280;41397;49.972;18.944;2023-05-03T09:22:50;102795.80;;;17.00;63.58
55550;BME280;41397;49.972;18.944;2023-05-03T09:25:54;102795.88;;;16.99;63.53
55550;BME280;41397;49.972;18.944;2023-05-03T09:28:57;102803.60;;;17.06;68.47
55550;BME280;41397;49.972;18.944;2023-05-03T09:32:01;102801.44;;;17.34;72.91
55550;BME280;41397;49.972;18.944;2023-05-03T09:35:09;102801.66;;;17.66;69.78
55550;BME280;41397;49.972;18.944;2023-05-03T09:38:24;102806.88;;;17.93;70.56
55550;BME280;41397;49.972;18.944;2023-05-03T09:41:28;102807.02;;;18.26;72.15
55550;BME280;41397;49.972;18.944;2023-05-03T09:47:49;102798.28;;;18.64;68.12
55550;BME280;41397;49.972;18.944;2023-05-03T09:50:53;102804.54;;;18.89;69.26
55550;BME280;41397;49.972;18.944;2023-05-03T09:53:55;102801.02;;;19.19;68.87
55550;BME280;41397;49.972;18.944;2023-05-03T09:56:57;102801.93;;;19.40;63.83
55550;BME280;41397;49.972;18.944;2023-05-03T10:00:02;102812.13;;;19.61;67.56
55550;BME280;41397;49.972;18.944;2023-05-03T10:03:07;102795.31;;;19.73;65.26
55550;BME280;41397;49.972;18.944;2023-05-03T10:09:35;102799.34;;;19.90;63.01
55550;BME280;41397;49.972;18.944;2023-05-03T10:12:42;102799.94;;;19.94;61.09
55550;BME280;41397;49.972;18.944;2023-05-03T10:15:44;102806.05;;;19.88;55.53
55550;BME280;41397;49.972;18.944;2023-05-03T10:22:06;102805.26;;;19.76;59.59
55550;BME280;41397;49.972;18.944;2023-05-03T10:25:08;102805.66;;;19.71;54.55
55550;BME280;41397;49.972;18.944;2023-05-03T10:28:16;102804.91;;;19.48;53.08
55550;BME280;41397;49.972;18.944;2023-05-03T10:34:33;102809.59;;;18.83;53.01
55550;BME280;41397;49.972;18.944;2023-05-03T10:37:36;102806.45;;;18.66;53.90
55550;BME280;41397;49.972;18.944;2023-05-03T10:40:42;102803.45;;;18.46;53.94
55550;BME280;41397;49.972;18.944;2023-05-03T10:43:45;102807.02;;;18.26;55.17
55550;BME280;41397;49.972;18.944;2023-05-03T10:46:48;102809.40;;;18.08;54.81
55550;BME280;41397;49.972;18.944;2023-05-03T10:53:04;102807.64;;;17.84;55.21
55550;BME280;41397;49.972;18.944;2023-05-03T10:56:12;102805.45;;;17.77;55.26
55550;BME280;41397;49.972;18.944;2023-05-03T10:59:16;102803.28;;;17.58;55.11
55550;BME280;41397;49.972;18.944;2023-05-03T11:02:22;102804.51;;;17.53;54.93
55550;BME280;41397;49.972;18.944;2023-05-03T11:05:30;102807.77;;;17.47;55.79
55550;BME280;41397;49.972;18.944;2023-05-03T11:08:33;102806.13;;;17.45;55.58
55550;BME280;41397;49.972;18.944;2023-05-03T11:11:40;102805.23;;;17.33;55.31
55550;BME280;41397;49.972;18.944;2023-05-03T11:14:43;102807.60;;;17.38;55.76
55550;BME280;41397;49.972;18.944;2023-05-03T11:17:45;102794.55;;;17.40;55.54
55550;BME280;41397;49.972;18.944;2023-05-03T11:20:46;102795.42;;;17.40;54.87
55550;BME280;41397;49.972;18.944;2023-05-03T11:23:49;102803.86;;;17.39;54.86
55550;BME280;41397;49.972;18.944;2023-05-03T11:26:50;102808.38;;;17.40;53.92
55550;BME280;41397;49.972;18.944;2023-05-03T11:29:52;102801.37;;;17.47;54.94
55550;BME280;41397;49.972;18.944;2023-05-03T11:36:11;102809.39;;;17.39;53.61
55550;BME280;41397;49.972;18.944;2023-05-03T11:39:18;102804.34;;;17.33;54.00
55550;BME280;41397;49.972;18.944;2023-05-03T11:42:20;102805.51;;;17.41;54.04
55550;BME280;41397;49.972;18.944;2023-05-03T11:45:37;102799.13;;;17.52;54.53
55550;BME280;41397;49.972;18.944;2023-05-03T11:48:42;102798.62;;;17.58;61.77
55550;BME280;41397;49.972;18.944;2023-05-03T11:51:44;102799.83;;;17.89;61.50
55550;BME280;41397;49.972;18.944;2023-05-03T11:54:47;102797.46;;;18.07;54.36
55550;BME280;41397;49.972;18.944;2023-05-03T11:57:48;102798.59;;;18.16;53.15
55550;BME280;41397;49.972;18.944;2023-05-03T12:00:53;102799.96;;;18.22;53.89
55550;BME280;41397;49.972;18.944;2023-05-03T12:04:02;102802.22;;;18.16;52.93
55550;BME280;41397;49.972;18.944;2023-05-03T12:07:05;102797.81;;;17.91;52.47
55550;BME280;41397;49.972;18.944;2023-05-03T12:10:14;102796.33;;;17.87;52.50
55550;BME280;41397;49.972;18.944;2023-05-03T12:13:28;102800.07;;;17.86;52.73
55550;BME280;41397;49.972;18.944;2023-05-03T12:19:41;102792.42;;;17.90;53.20
55550;BME280;41397;49.972;18.944;2023-05-03T12:22:43;102796.58;;;17.84;52.40
55550;BME280;41397;49.972;18.944;2023-05-03T12:25:45;102787.98;;;17.76;53.15
55550;BME280;41397;49.972;18.944;2023-05-03T12:28:48;102791.47;;;17.78;53.46
55550;BME280;41397;49.972;18.944;2023-05-03T12:31:49;102786.70;;;17.69;52.97
55550;BME280;41397;49.972;18.944;2023-05-03T12:34:55;102783.42;;;17.75;52.81
55550;BME280;41397;49.972;18.944;2023-05-03T12:37:58;102785.33;;;17.74;51.90
55550;BME280;41397;49.972;18.944;2023-05-03T12:41:03;102790.60;;;17.78;52.24
55550;BME280;41397;49.972;18.944;2023-05-03T12:44:05;102783.68;;;17.72;51.29
55550;BME280;41397;49.972;18.944;2023-05-03T12:47:07;102782.44;;;17.76;52.25
55550;BME280;41397;49.972;18.944;2023-05-03T12:50:09;102781.01;;;17.59;51.13
55550;BME280;41397;49.972;18.944;2023-05-03T12:53:11;102781.52;;;17.64;51.44
55550;BME280;41397;49.972;18.944;2023-05-03T12:56:13;102779.02;;;17.72;51.77
55550;BME280;41397;49.972;18.944;2023-05-03T12:59:15;102782.91;;;17.70;51.49
55550;BME280;41397;49.972;18.944;2023-05-03T13:02:17;102778.39;;;17.69;51.42
55550;BME280;41397;49.972;18.944;2023-05-03T13:05:19;102777.38;;;17.70;52.12
55550;BME280;41397;49.972;18.944;2023-05-03T13:08:21;102766.71;;;17.77;52.08
55550;BME280;41397;49.972;18.944;2023-05-03T13:11:24;102769.88;;;17.83;51.81
55550;BME280;41397;49.972;18.944;2023-05-03T13:14:27;102769.12;;;17.81;51.69
55550;BME280;41397;49.972;18.944;2023-05-03T13:17:30;102761.29;;;17.75;51.74
55550;BME280;41397;49.972;18.944;2023-05-03T13:20:34;102771.01;;;17.81;51.68
55550;BME280;41397;49.972;18.944;2023-05-03T13:23:37;102766.45;;;17.68;51.56
55550;BME280;41397;49.972;18.944;2023-05-03T13:26:38;102766.06;;;17.73;51.32
55550;BME280;41397;49.972;18.944;2023-05-03T13:29:40;102765.58;;;17.68;51.51
55550;BME280;41397;49.972;18.944;2023-05-03T13:32:42;102767.95;;;17.72;51.39
55550;BME280;41397;49.972;18.944;2023-05-03T13:35:44;102765.93;;;17.63;50.99
55550;BME280;41397;49.972;18.944;2023-05-03T13:38:49;102764.80;;;17.55;51.25
55550;BME280;41397;49.972;18.944;2023-05-03T13:42:28;102757.75;;;17.62;51.99
55550;BME280;41397;49.972;18.944;2023-05-03T13:45:43;102761.65;;;17.59;51.17
55550;BME280;41397;49.972;18.944;2023-05-03T13:48:48;102755.84;;;17.62;51.17
55550;BME280;41397;49.972;18.944;2023-05-03T13:51:50;102753.59;;;17.56;51.59
55550;BME280;41397;49.972;18.944;2023-05-03T13:54:59;102748.83;;;17.58;51.69
55550;BME280;41397;49.972;18.944;2023-05-03T14:01:26;102734.12;;;17.69;51.65
55550;BME280;41397;49.972;18.944;2023-05-03T14:04:32;102740.02;;;17.64;51.45
55550;BME280;41397;49.972;18.944;2023-05-03T14:07:33;102739.15;;;17.64;51.65
55550;BME280;41397;49.972;18.944;2023-05-03T14:10:36;102743.90;;;17.50;51.97
55550;BME280;41397;49.972;18.944;2023-05-03T14:13:46;102739.89;;;17.55;52.14
55550;BME280;41397;49.972;18.944;2023-05-03T14:16:51;102738.99;;;17.54;52.35
55550;BME280;41397;49.972;18.944;2023-05-03T14:19:53;102740.77;;;17.55;52.34
55550;BME280;41397;49.972;18.944;2023-05-03T14:22:55;102742.77;;;17.53;52.42
55550;BME280;41397;49.972;18.944;2023-05-03T14:25:56;102749.93;;;17.44;52.64
55550;BME280;41397;49.972;18.944;2023-05-03T14:28:58;102746.16;;;17.45;52.77
55550;BME280;41397;49.972;18.944;2023-05-03T14:32:01;102747.95;;;17.58;52.43
55550;BME280;41397;49.972;18.944;2023-05-03T14:35:02;102743.80;;;17.63;52.28
55550;BME280;41397;49.972;18.944;2023-05-03T14:38:04;102745.55;;;17.53;52.44
55550;BME280;41397;49.972;18.944;2023-05-03T14:41:06;102750.06;;;17.54;52.35
55550;BME280;41397;49.972;18.944;2023-05-03T14:44:09;102745.55;;;17.53;52.51
55550;BME280;41397;49.972;18.944;2023-05-03T14:47:10;102758.77;;;17.61;52.71
55550;BME280;41397;49.972;18.944;2023-05-03T14:50:12;102752.61;;;17.68;52.87
55550;BME280;41397;49.972;18.944;2023-05-03T14:53:13;102758.52;;;17.75;53.00
55550;BME280;41397;49.972;18.944;2023-05-03T14:56:16;102754.36;;;17.58;52.99
55550;BME280;41397;49.972;18.944;2023-05-03T14:59:18;102760.00;;;17.57;53.02
55550;BME280;41397;49.972;18.944;2023-05-03T15:02:19;102766.19;;;17.60;53.20
55550;BME280;41397;49.972;18.944;2023-05-03T15:05:21;102760.90;;;17.57;52.76
55550;BME280;41397;49.972;18.944;2023-05-03T15:08:22;102761.38;;;17.51;52.97
55550;BME280;41397;49.972;18.944;2023-05-03T15:11:24;102762.15;;;17.53;52.66
55550;BME280;41397;49.972;18.944;2023-05-03T15:14:27;102766.28;;;17.47;52.19
55550;BME280;41397;49.972;18.944;2023-05-03T15:17:29;102758.07;;;17.35;52.45
55550;BME280;41397;49.972;18.944;2023-05-03T15:20:32;102761.74;;;17.35;52.86
55550;BME280;41397;49.972;18.944;2023-05-03T15:23:33;102756.42;;;17.32;53.49
55550;BME280;41397;49.972;18.944;2023-05-03T15:26:35;102768.49;;;17.31;53.44
55550;BME280;41397;49.972;18.944;2023-05-03T15:29:37;102763.71;;;17.22;53.48
55550;BME280;41397;49.972;18.944;2023-05-03T15:32:38;102759.02;;;17.11;54.09
55550;BME280;41397;49.972;18.944;2023-05-03T15:35:40;102767.59;;;17.19;54.18
55550;BME280;41397;49.972;18.944;2023-05-03T15:38:42;102763.46;;;17.25;54.12
55550;BME280;41397;49.972;18.944;2023-05-03T15:41:45;102752.02;;;17.29;53.81
55550;BME280;41397;49.972;18.944;2023-05-03T15:44:46;102763.22;;;17.28;53.79
55550;BME280;41397;49.972;18.944;2023-05-03T15:47:51;102751.04;;;17.30;53.88
55550;BME280;41397;49.972;18.944;2023-05-03T15:50:52;102752.54;;;17.35;53.92
55550;BME280;41397;49.972;18.944;2023-05-03T15:53:54;102758.46;;;17.30;53.75
55550;BME280;41397;49.972;18.944;2023-05-03T15:56:55;102758.53;;;17.17;53.79
55550;BME280;41397;49.972;18.944;2023-05-03T15:59:58;102754.75;;;17.18;54.08
55550;BME280;41397;49.972;18.944;2023-05-03T16:03:00;102755.88;;;17.16;54.35
55550;BME280;41397;49.972;18.944;2023-05-03T16:06:02;102754.75;;;17.18;54.13
55550;BME280;41397;49.972;18.944;2023-05-03T16:09:04;102755.66;;;17.19;54.29
55550;BME280;41397;49.972;18.944;2023-05-03T16:12:07;102758.29;;;17.20;54.13
55550;BME280;41397;49.972;18.944;2023-05-03T16:15:10;102740.55;;;17.12;54.46
55550;BME280;41397;49.972;18.944;2023-05-03T16:18:12;102751.71;;;17.10;54.78
55550;BME280;41397;49.972;18.944;2023-05-03T16:21:13;102754.95;;;17.04;54.47
55550;BME280;41397;49.972;18.944;2023-05-03T16:24:17;102745.27;;;16.98;54.89
55550;BME280;41397;49.972;18.944;2023-05-03T16:27:18;102750.56;;;17.01;54.82
55550;BME280;41397;49.972;18.944;2023-05-03T16:30:20;102745.80;;;17.03;55.11
55550;BME280;41397;49.972;18.944;2023-05-03T16:33:21;102750.56;;;17.01;55.02
55550;BME280;41397;49.972;18.944;2023-05-03T16:36:23;102751.82;;;16.97;55.11